Servet Ana — TCMF7 — position and weather

sailwx.info

Track history (hours):
 
Tides and Currents Weather Stations Pressure Air Temp Water Temp Dewpoint Dewpoint Depression Visibility Wind Speed Wind Dir Waves Ship Positions

Servet Ana

Last reported at 2016-Apr-26 16:32 UTC. Time now 2016-Apr-30 15:01 UTC.
Position N 35°49' W 010°39'.

Length 179 m; draft 9.9 m.

Type: Cargo ship. MMSI: 271042643.

Date/timePositionNaut miles runAvg speedWind from/ knotsBaromVisibWave heightAir tempDewpointWater temp
2016-Apr-26 16:32N 35°49' W 010°39'1313.0
2016-Apr-26 15:33N 35°49' W 010°23'1413.0
2016-Apr-26 14:29N 35°50' W 010°06'22213.1
2016-Apr-25 21:33N 35°59' W 005°32'10 9.7
2016-Apr-25 20:33N 36°01' W 005°20'26913.3
2016-Apr-25 00:22N 36°44' E 000°10'57412.5
2016-Apr-23 02:29N 37°02' E 012°07'1213.2
2016-Apr-23 01:33N 36°58' E 012°21'1313.1
2016-Apr-23 00:33N 36°53' E 012°36'6713.1
2016-Apr-22 19:27N 36°34' E 013°56'1213.3
2016-Apr-22 18:33N 36°30' E 014°10'1313.3
2016-Apr-22 17:33N 36°25' E 014°25'1312.8
2016-Apr-22 16:33N 36°22' E 014°41'1312.9
2016-Apr-22 15:31N 36°22' E 014°57'1212.9
2016-Apr-22 14:33N 36°22' E 015°13'42311.9
2016-Apr-21 03:07N 37°21' E 023°57'813.2
2016-Apr-21 02:33N 37°27' E 024°02'1313.3
2016-Apr-21 01:32N 37°39' E 024°11'1313.3
2016-Apr-21 00:33N 37°48' E 024°23'1313.2
2016-Apr-20 23:33N 37°56' E 024°36'258 8.8
2016-Apr-19 18:08N 40°49' E 028°44'811.3
2016-Apr-19 17:27N 40°54' E 028°51'271 6.6
2016-Apr-18 00:28N 42°47' E 034°22'1212.7
2016-Apr-17 23:33N 42°51' E 034°37'1312.4
2016-Apr-17 22:30N 42°56' E 034°54'2612.6
2016-Apr-17 20:28N 43°05' E 035°26'1212.9
2016-Apr-17 19:32N 43°10' E 035°42'1713.1
2016-Apr-17 18:16N 43°15' E 036°03'1013.2
2016-Apr-17 17:31N 43°19' E 036°16'1513.3
2016-Apr-17 16:23N 43°24' E 036°36'1113.2
2016-Apr-17 15:33N 43°28' E 036°50'1413.0
2016-Apr-17 14:28N 43°33' E 037°08'1212.7
2016-Apr-17 13:33N 43°37' E 037°23'1312.5
2016-Apr-17 12:33N 43°41' E 037°39'1312.8
2016-Apr-17 11:33N 43°45' E 037°56'1312.7
2016-Apr-17 10:33N 43°50' E 038°12'1313.1
2016-Apr-17 09:33N 43°55' E 038°29'1313.3
2016-Apr-17 08:33N 43°59' E 038°46'1312.8
2016-Apr-17 07:33N 44°04' E 039°03'2 1.8
2016-Apr-17 06:31N 44°05' E 039°04'0 0.0
2016-Apr-17 05:31N 44°05' E 039°04'0 0.0
2016-Apr-17 04:31N 44°05' E 039°04'0 0.0
2016-Apr-17 03:31N 44°05' E 039°04'0 0.0
2016-Apr-17 02:31N 44°05' E 039°04'0 0.0
2016-Apr-17 01:31N 44°05' E 039°04'0 0.0
2016-Apr-17 00:31N 44°05' E 039°04'0 0.0
2016-Apr-16 23:31N 44°05' E 039°04'0 0.0
2016-Apr-16 22:31N 44°05' E 039°04'0 0.0
2016-Apr-16 21:31N 44°05' E 039°04'0 0.0
2016-Apr-16 20:31N 44°05' E 039°04'0 0.0
2016-Apr-16 19:31N 44°05' E 039°04'0 0.0
2016-Apr-16 18:31N 44°05' E 039°04'0 0.0
2016-Apr-16 17:31N 44°05' E 039°04'  
Track history (hours):
 
Tides and Currents Weather Stations Pressure Air Temp Water Temp Dewpoint Dewpoint Depression Visibility Wind Speed Wind Dir Waves Ship Positions

Servet Ana

Last reported at 2016-Apr-26 16:32 UTC. Time now 2016-Apr-30 15:01 UTC.
Position N 35°49' W 010°39'.

Length 179 m; draft 9.9 m.

Type: Cargo ship. MMSI: 271042643.

Date/timePositionNaut miles runAvg speedWind from/ knotsBaromVisibWave heightAir tempDewpointWater temp
2016-Apr-26 16:32N 35°49' W 010°39'1313.0
2016-Apr-26 15:33N 35°49' W 010°23'1413.0
2016-Apr-26 14:29N 35°50' W 010°06'22213.1
2016-Apr-25 21:33N 35°59' W 005°32'10 9.7
2016-Apr-25 20:33N 36°01' W 005°20'26913.3
2016-Apr-25 00:22N 36°44' E 000°10'57412.5
2016-Apr-23 02:29N 37°02' E 012°07'1213.2
2016-Apr-23 01:33N 36°58' E 012°21'1313.1
2016-Apr-23 00:33N 36°53' E 012°36'6713.1
2016-Apr-22 19:27N 36°34' E 013°56'1213.3
2016-Apr-22 18:33N 36°30' E 014°10'1313.3
2016-Apr-22 17:33N 36°25' E 014°25'1312.8
2016-Apr-22 16:33N 36°22' E 014°41'1312.9
2016-Apr-22 15:31N 36°22' E 014°57'1212.9
2016-Apr-22 14:33N 36°22' E 015°13'42311.9
2016-Apr-21 03:07N 37°21' E 023°57'813.2
2016-Apr-21 02:33N 37°27' E 024°02'1313.3
2016-Apr-21 01:32N 37°39' E 024°11'1313.3
2016-Apr-21 00:33N 37°48' E 024°23'1313.2
2016-Apr-20 23:33N 37°56' E 024°36'258 8.8
2016-Apr-19 18:08N 40°49' E 028°44'811.3
2016-Apr-19 17:27N 40°54' E 028°51'271 6.6
2016-Apr-18 00:28N 42°47' E 034°22'1212.7
2016-Apr-17 23:33N 42°51' E 034°37'1312.4
2016-Apr-17 22:30N 42°56' E 034°54'2612.6
2016-Apr-17 20:28N 43°05' E 035°26'1212.9
2016-Apr-17 19:32N 43°10' E 035°42'1713.1
2016-Apr-17 18:16N 43°15' E 036°03'1013.2
2016-Apr-17 17:31N 43°19' E 036°16'1513.3
2016-Apr-17 16:23N 43°24' E 036°36'1113.2
2016-Apr-17 15:33N 43°28' E 036°50'1413.0
2016-Apr-17 14:28N 43°33' E 037°08'1212.7
2016-Apr-17 13:33N 43°37' E 037°23'1312.5
2016-Apr-17 12:33N 43°41' E 037°39'1312.8
2016-Apr-17 11:33N 43°45' E 037°56'1312.7
2016-Apr-17 10:33N 43°50' E 038°12'1313.1
2016-Apr-17 09:33N 43°55' E 038°29'1313.3
2016-Apr-17 08:33N 43°59' E 038°46'1312.8
2016-Apr-17 07:33N 44°04' E 039°03'2 1.8
2016-Apr-17 06:31N 44°05' E 039°04'0 0.0
2016-Apr-17 05:31N 44°05' E 039°04'0 0.0
2016-Apr-17 04:31N 44°05' E 039°04'0 0.0
2016-Apr-17 03:31N 44°05' E 039°04'0 0.0
2016-Apr-17 02:31N 44°05' E 039°04'0 0.0
2016-Apr-17 01:31N 44°05' E 039°04'0 0.0
2016-Apr-17 00:31N 44°05' E 039°04'0 0.0
2016-Apr-16 23:31N 44°05' E 039°04'0 0.0
2016-Apr-16 22:31N 44°05' E 039°04'0 0.0
2016-Apr-16 21:31N 44°05' E 039°04'0 0.0
2016-Apr-16 20:31N 44°05' E 039°04'0 0.0
2016-Apr-16 19:31N 44°05' E 039°04'0 0.0
2016-Apr-16 18:31N 44°05' E 039°04'0 0.0
2016-Apr-16 17:31N 44°05' E 039°04'  

Dump ship's entire track history